sensor_id;sensor_type;location;lat;lon;timestamp;temperature;humidity
73438;DHT22;66471;56.532;21.020;2023-06-26T06:07:30;21.90;78.10
73438;DHT22;66471;56.532;21.020;2023-06-26T19:35:49;18.10;93.70
73438;DHT22;66471;56.532;21.020;2023-06-26T19:38:16;18.10;94.20
73438;DHT22;66471;56.532;21.020;2023-06-26T19:40:44;18.00;94.40
73438;DHT22;66471;56.532;21.020;2023-06-26T19:43:11;18.00;94.80
73438;DHT22;66471;56.532;21.020;2023-06-26T19:45:39;17.80;94.60
73438;DHT22;66471;56.532;21.020;2023-06-26T19:48:07;17.80;94.70
73438;DHT22;66471;56.532;21.020;2023-06-26T19:50:34;17.80;95.10
73438;DHT22;66471;56.532;21.020;2023-06-26T19:53:02;17.80;94.80
73438;DHT22;66471;56.532;21.020;2023-06-26T19:55:29;17.70;95.00
73438;DHT22;66471;56.532;21.020;2023-06-26T19:57:56;17.60;95.40
73438;DHT22;66471;56.532;21.020;2023-06-26T20:00:23;17.40;95.70
73438;DHT22;66471;56.532;21.020;2023-06-26T20:02:53;17.50;95.80
73438;DHT22;66471;56.532;21.020;2023-06-26T20:05:22;17.40;96.00
73438;DHT22;66471;56.532;21.020;2023-06-26T20:07:49;17.40;96.10
73438;DHT22;66471;56.532;21.020;2023-06-26T20:10:16;17.40;96.10
73438;DHT22;66471;56.532;21.020;2023-06-26T20:12:43;17.40;95.90
73438;DHT22;66471;56.532;21.020;2023-06-26T20:15:11;17.30;95.60
73438;DHT22;66471;56.532;21.020;2023-06-26T20:17:38;17.30;95.70
73438;DHT22;66471;56.532;21.020;2023-06-26T20:20:06;17.30;96.30
73438;DHT22;66471;56.532;21.020;2023-06-26T20:22:33;17.20;96.20
73438;DHT22;66471;56.532;21.020;2023-06-26T20:25:00;17.10;96.50
73438;DHT22;66471;56.532;21.020;2023-06-26T20:27:27;17.10;96.30
73438;DHT22;66471;56.532;21.020;2023-06-26T20:29:55;17.00;96.60
73438;DHT22;66471;56.532;21.020;2023-06-26T20:32:22;16.90;96.50
73438;DHT22;66471;56.532;21.020;2023-06-26T20:34:51;16.90;96.40
73438;DHT22;66471;56.532;21.020;2023-06-26T20:37:18;16.80;96.90
73438;DHT22;66471;56.532;21.020;2023-06-26T20:39:45;16.80;97.00
73438;DHT22;66471;56.532;21.020;2023-06-26T20:42:13;16.70;97.20
73438;DHT22;66471;56.532;21.020;2023-06-26T20:44:42;16.60;96.90
73438;DHT22;66471;56.532;21.020;2023-06-26T20:47:10;16.60;96.90
73438;DHT22;66471;56.532;21.020;2023-06-26T20:49:40;16.60;97.00
73438;DHT22;66471;56.532;21.020;2023-06-26T20:52:09;16.50;96.80
73438;DHT22;66471;56.532;21.020;2023-06-26T20:54:38;16.50;96.40
73438;DHT22;66471;56.532;21.020;2023-06-26T20:57:06;16.40;96.50
73438;DHT22;66471;56.532;21.020;2023-06-26T20:59:38;16.30;96.90
73438;DHT22;66471;56.532;21.020;2023-06-26T21:02:06;16.30;97.00
73438;DHT22;66471;56.532;21.020;2023-06-26T21:04:36;16.20;97.10
73438;DHT22;66471;56.532;21.020;2023-06-26T21:07:05;16.10;97.00
73438;DHT22;66471;56.532;21.020;2023-06-26T21:09:33;16.10;97.20
73438;DHT22;66471;56.532;21.020;2023-06-26T21:12:00;16.10;97.50
73438;DHT22;66471;56.532;21.020;2023-06-26T21:14:31;15.90;97.70
73438;DHT22;66471;56.532;21.020;2023-06-26T21:16:58;16.00;97.90
73438;DHT22;66471;56.532;21.020;2023-06-26T21:19:26;15.90;97.80
73438;DHT22;66471;56.532;21.020;2023-06-26T21:21:53;15.90;97.80
73438;DHT22;66471;56.532;21.020;2023-06-26T21:24:20;15.80;97.90
73438;DHT22;66471;56.532;21.020;2023-06-26T21:26:47;15.80;97.60
73438;DHT22;66471;56.532;21.020;2023-06-26T21:29:15;15.70;97.60
73438;DHT22;66471;56.532;21.020;2023-06-26T21:31:42;15.80;98.00
73438;DHT22;66471;56.532;21.020;2023-06-26T21:34:09;15.70;98.10
73438;DHT22;66471;56.532;21.020;2023-06-26T21:36:38;15.80;97.60
73438;DHT22;66471;56.532;21.020;2023-06-26T21:39:05;15.70;97.60
73438;DHT22;66471;56.532;21.020;2023-06-26T21:41:33;15.60;97.50
73438;DHT22;66471;56.532;21.020;2023-06-26T21:44:00;15.60;98.00
73438;DHT22;66471;56.532;21.020;2023-06-26T21:46:27;15.60;98.10
73438;DHT22;66471;56.532;21.020;2023-06-26T21:48:55;15.60;97.80
73438;DHT22;66471;56.532;21.020;2023-06-26T21:51:22;15.50;97.60
73438;DHT22;66471;56.532;21.020;2023-06-26T21:53:49;15.50;97.90
73438;DHT22;66471;56.532;21.020;2023-06-26T21:56:16;15.50;98.10
73438;DHT22;66471;56.532;21.020;2023-06-26T21:58:43;15.50;98.20
73438;DHT22;66471;56.532;21.020;2023-06-26T22:01:10;15.50;97.90
73438;DHT22;66471;56.532;21.020;2023-06-26T22:03:38;15.50;98.10
73438;DHT22;66471;56.532;21.020;2023-06-26T22:06:05;15.40;98.20
73438;DHT22;66471;56.532;21.020;2023-06-26T22:08:32;15.40;99.80
73438;DHT22;66471;56.532;21.020;2023-06-26T22:11:00;15.40;98.80
73438;DHT22;66471;56.532;21.020;2023-06-26T22:13:27;15.30;99.80
73438;DHT22;66471;56.532;21.020;2023-06-26T22:15:54;15.30;99.70
73438;DHT22;66471;56.532;21.020;2023-06-26T22:18:24;15.30;99.90
73438;DHT22;66471;56.532;21.020;2023-06-26T22:20:51;15.30;99.30
73438;DHT22;66471;56.532;21.020;2023-06-26T22:23:18;15.20;99.90
73438;DHT22;66471;56.532;21.020;2023-06-26T22:25:45;15.20;99.90
73438;DHT22;66471;56.532;21.020;2023-06-26T22:28:13;15.20;99.90
73438;DHT22;66471;56.532;21.020;2023-06-26T22:30:40;15.30;99.90
73438;DHT22;66471;56.532;21.020;2023-06-26T22:33:07;15.20;99.90
73438;DHT22;66471;56.532;21.020;2023-06-26T22:35:34;15.20;99.90
73438;DHT22;66471;56.532;21.020;2023-06-26T22:38:01;15.20;99.90
73438;DHT22;66471;56.532;21.020;2023-06-26T22:40:28;15.10;99.80
73438;DHT22;66471;56.532;21.020;2023-06-26T22:42:55;15.10;99.40
73438;DHT22;66471;56.532;21.020;2023-06-26T22:45:22;15.10;99.70
73438;DHT22;66471;56.532;21.020;2023-06-26T22:47:49;15.10;99.90
73438;DHT22;66471;56.532;21.020;2023-06-26T22:50:16;15.10;99.90
73438;DHT22;66471;56.532;21.020;2023-06-26T22:52:44;15.10;99.90
73438;DHT22;66471;56.532;21.020;2023-06-26T22:55:12;15.10;99.90
73438;DHT22;66471;56.532;21.020;2023-06-26T22:57:39;15.10;99.90
73438;DHT22;66471;56.532;21.020;2023-06-26T23:00:07;15.10;99.90
73438;DHT22;66471;56.532;21.020;2023-06-26T23:02:37;15.10;99.90
73438;DHT22;66471;56.532;21.020;2023-06-26T23:05:07;15.10;99.90
73438;DHT22;66471;56.532;21.020;2023-06-26T23:07:34;15.20;99.90
73438;DHT22;66471;56.532;21.020;2023-06-26T23:10:06;15.20;99.90
73438;DHT22;66471;56.532;21.020;2023-06-26T23:12:34;15.20;99.90
73438;DHT22;66471;56.532;21.020;2023-06-26T23:15:02;15.10;99.90
73438;DHT22;66471;56.532;21.020;2023-06-26T23:17:30;15.20;99.90
73438;DHT22;66471;56.532;21.020;2023-06-26T23:19:57;15.20;99.90
73438;DHT22;66471;56.532;21.020;2023-06-26T23:22:25;15.10;99.90
73438;DHT22;66471;56.532;21.020;2023-06-26T23:24:52;15.20;99.90
73438;DHT22;66471;56.532;21.020;2023-06-26T23:27:24;15.20;99.90
73438;DHT22;66471;56.532;21.020;2023-06-26T23:29:51;15.20;99.90
73438;DHT22;66471;56.532;21.020;2023-06-26T23:32:20;15.20;99.90
73438;DHT22;66471;56.532;21.020;2023-06-26T23:34:49;15.10;99.90
73438;DHT22;66471;56.532;21.020;2023-06-26T23:37:17;15.10;99.90
73438;DHT22;66471;56.532;21.020;2023-06-26T23:39:52;15.10;99.90
73438;DHT22;66471;56.532;21.020;2023-06-26T23:42:19;15.00;99.90
73438;DHT22;66471;56.532;21.020;2023-06-26T23:44:46;15.10;99.90
73438;DHT22;66471;56.532;21.020;2023-06-26T23:47:17;15.00;99.90
73438;DHT22;66471;56.532;21.020;2023-06-26T23:49:45;15.00;99.90
73438;DHT22;66471;56.532;21.020;2023-06-26T23:52:12;14.90;99.90
73438;DHT22;66471;56.532;21.020;2023-06-26T23:54:39;15.00;99.90
73438;DHT22;66471;56.532;21.020;2023-06-26T23:57:07;14.80;99.90
73438;DHT22;66471;56.532;21.020;2023-06-26T23:59:34;14.90;99.90
